createdAt,value
2022-10-17T00:00:57.711Z,12.70
2022-10-17T00:01:57.693Z,12.70
2022-10-17T00:03:50.678Z,12.70
2022-10-17T00:04:50.659Z,12.68
2022-10-17T00:06:54.661Z,12.70
2022-10-17T00:07:54.651Z,12.70
2022-10-17T00:09:47.756Z,12.68
2022-10-17T00:10:47.736Z,12.70
2022-10-17T00:12:40.643Z,12.76
2022-10-17T00:13:40.634Z,12.76
2022-10-17T00:15:44.613Z,12.73
2022-10-17T00:16:44.598Z,12.76
2022-10-17T00:18:48.670Z,12.76
2022-10-17T00:19:48.570Z,12.76
2022-10-17T00:20:48.585Z,12.78
2022-10-17T00:21:48.561Z,12.76
2022-10-17T00:22:48.568Z,12.68
2022-10-17T00:23:48.552Z,12.68
2022-10-17T00:24:48.553Z,12.67
2022-10-17T00:25:48.525Z,12.61
2022-10-17T00:26:48.520Z,12.58
2022-10-17T00:27:48.520Z,12.61
2022-10-17T00:28:48.529Z,12.64
2022-10-17T00:29:48.499Z,12.54
2022-10-17T00:30:48.494Z,12.65
2022-10-17T00:31:48.556Z,12.62
2022-10-17T00:32:48.480Z,12.70
2022-10-17T00:33:48.474Z,12.62
2022-10-17T00:34:48.469Z,12.62
2022-10-17T00:35:48.462Z,12.60
2022-10-17T00:36:48.455Z,12.55
2022-10-17T00:37:48.449Z,12.54
2022-10-17T00:38:48.443Z,12.58
2022-10-17T00:39:48.436Z,12.50
2022-10-17T00:40:48.447Z,12.50
2022-10-17T00:41:48.422Z,12.53
2022-10-17T00:42:48.418Z,12.55
2022-10-17T00:43:48.415Z,12.37
2022-10-17T00:44:48.432Z,12.42
2022-10-17T00:45:48.395Z,12.40
2022-10-17T00:46:48.391Z,12.37
2022-10-17T00:47:48.385Z,12.47
2022-10-17T00:48:48.377Z,12.37
2022-10-17T00:49:48.428Z,12.53
2022-10-17T00:50:48.364Z,12.39
2022-10-17T00:51:48.361Z,12.53
2022-10-17T00:52:48.353Z,12.50
2022-10-17T00:53:48.345Z,12.50
2022-10-17T00:54:48.378Z,12.57
2022-10-17T00:55:48.333Z,12.61
2022-10-17T00:56:48.327Z,12.54
2022-10-17T00:57:48.319Z,12.60
2022-10-17T00:58:48.320Z,12.65
2022-10-17T00:59:48.310Z,12.65
2022-10-17T01:00:48.299Z,12.70
2022-10-17T01:01:48.336Z,12.65
2022-10-17T01:02:48.291Z,12.73
2022-10-17T01:03:48.282Z,12.67
2022-10-17T01:04:48.275Z,12.67
2022-10-17T01:05:48.269Z,12.68
2022-10-17T01:06:48.261Z,12.62
2022-10-17T01:07:48.257Z,12.55
2022-10-17T01:08:48.248Z,12.54
2022-10-17T01:09:48.242Z,12.53
2022-10-17T01:10:48.237Z,12.47
2022-10-17T01:11:48.230Z,12.47
2022-10-17T01:12:48.226Z,12.53
2022-10-17T01:13:48.219Z,12.49
2022-10-17T01:14:48.210Z,12.50
2022-10-17T01:15:48.204Z,12.50
2022-10-17T01:16:48.200Z,12.55
2022-10-17T01:17:48.190Z,12.53
2022-10-17T01:18:48.185Z,12.50
2022-10-17T01:19:48.178Z,12.55
2022-10-17T01:20:48.172Z,12.54
2022-10-17T01:21:48.165Z,12.50
2022-10-17T01:22:48.158Z,12.50
2022-10-17T01:23:48.152Z,12.54
2022-10-17T01:24:48.148Z,12.47
2022-10-17T01:25:48.138Z,12.49
2022-10-17T01:26:48.133Z,12.47
2022-10-17T01:27:48.130Z,12.58
2022-10-17T01:28:48.121Z,12.54
2022-10-17T01:29:48.113Z,12.45
2022-10-17T01:30:48.106Z,12.53
2022-10-17T01:31:48.102Z,12.50
2022-10-17T01:32:48.095Z,12.50
2022-10-17T01:33:48.087Z,12.37
2022-10-17T01:34:48.081Z,12.32
2022-10-17T01:35:48.080Z,12.43
2022-10-17T01:36:48.067Z,12.39
2022-10-17T01:37:48.109Z,12.39
2022-10-17T01:38:48.055Z,12.42
2022-10-17T01:39:48.052Z,12.36
2022-10-17T01:40:48.042Z,12.39
2022-10-17T01:41:48.033Z,12.37
2022-10-17T01:42:48.028Z,12.37
2022-10-17T01:43:48.021Z,12.42
2022-10-17T01:44:48.015Z,12.35
2022-10-17T01:45:48.009Z,12.39
2022-10-17T01:46:48.034Z,12.37
2022-10-17T01:47:47.995Z,12.36
2022-10-17T01:48:47.988Z,12.32
2022-10-17T01:49:47.981Z,12.29
2022-10-17T01:50:47.975Z,12.36
2022-10-17T01:51:47.971Z,12.39
2022-10-17T01:52:47.962Z,12.40
2022-10-17T01:53:47.956Z,12.35
2022-10-17T01:54:47.951Z,12.40
2022-10-17T01:55:48.031Z,12.28
2022-10-17T01:56:47.936Z,12.32
2022-10-17T01:57:47.927Z,12.25
2022-10-17T01:58:47.929Z,12.21
2022-10-17T01:59:47.916Z,12.15
2022-10-17T02:00:47.909Z,12.20
2022-10-17T02:01:47.942Z,12.10
2022-10-17T02:02:47.897Z,12.12
2022-10-17T02:03:47.890Z,12.02
2022-10-17T02:04:47.883Z,12.09
2022-10-17T02:05:47.878Z,12.09
2022-10-17T02:06:47.872Z,12.13
2022-10-17T02:07:47.863Z,12.07
2022-10-17T02:08:47.856Z,12.03
2022-10-17T02:09:47.851Z,12.12
2022-10-17T02:10:47.847Z,12.17
2022-10-17T02:11:47.838Z,12.09
2022-10-17T02:12:47.828Z,12.10
2022-10-17T02:13:47.820Z,12.06
2022-10-17T02:14:47.819Z,12.03
2022-10-17T02:15:47.809Z,12.25
2022-10-17T02:16:47.802Z,12.21
2022-10-17T02:17:47.795Z,12.28
2022-10-17T02:18:47.789Z,12.36
2022-10-17T02:19:47.783Z,12.49
2022-10-17T02:20:47.776Z,12.53
2022-10-17T02:21:47.769Z,12.70
2022-10-17T02:22:47.765Z,12.68
2022-10-17T02:23:47.756Z,12.80
2022-10-17T02:24:47.747Z,12.79
2022-10-17T02:25:47.742Z,12.82
2022-10-17T02:26:47.734Z,12.87
2022-10-17T02:27:47.730Z,12.78
2022-10-17T02:28:47.747Z,12.80
2022-10-17T02:29:47.758Z,12.85
2022-10-17T02:30:47.709Z,12.83
2022-10-17T02:31:47.703Z,12.91
2022-10-17T02:32:50.173Z,12.97
2022-10-17T02:33:47.691Z,12.93
2022-10-17T02:34:47.682Z,12.95
2022-10-17T02:35:47.673Z,13.08
2022-10-17T02:36:47.668Z,13.09
2022-10-17T02:37:47.661Z,13.20
2022-10-17T02:38:47.656Z,13.22
2022-10-17T02:39:47.650Z,13.16
2022-10-17T02:40:47.641Z,13.18
2022-10-17T02:41:47.633Z,13.25
2022-10-17T02:42:47.629Z,13.25
2022-10-17T02:43:47.624Z,13.27
2022-10-17T02:44:47.615Z,13.28
2022-10-17T02:45:47.607Z,13.25
2022-10-17T02:46:47.602Z,13.30
2022-10-17T02:47:47.596Z,13.25
2022-10-17T02:48:47.591Z,13.38
2022-10-17T02:49:47.581Z,13.30
2022-10-17T02:50:47.575Z,13.33
2022-10-17T02:51:47.569Z,13.33
2022-10-17T02:52:47.562Z,13.38
2022-10-17T02:53:47.554Z,13.39
2022-10-17T02:54:47.550Z,13.37
2022-10-17T02:55:47.605Z,13.41
2022-10-17T02:56:47.537Z,13.39
2022-10-17T02:57:47.530Z,13.44
2022-10-17T02:58:47.523Z,13.39
2022-10-17T02:59:47.517Z,13.47
2022-10-17T03:00:47.510Z,13.44
2022-10-17T03:01:47.505Z,13.42
2022-10-17T03:02:47.499Z,13.41
2022-10-17T03:03:47.491Z,13.44
2022-10-17T03:04:47.484Z,13.44
2022-10-17T03:05:47.478Z,13.46
2022-10-17T03:06:47.473Z,13.41
2022-10-17T03:07:47.465Z,13.44
2022-10-17T03:08:47.460Z,13.42
2022-10-17T03:09:47.455Z,13.46
2022-10-17T03:10:47.447Z,13.37
2022-10-17T03:11:47.442Z,13.37
2022-10-17T03:12:47.433Z,13.44
2022-10-17T03:13:47.426Z,13.47
2022-10-17T03:14:47.423Z,13.37
2022-10-17T03:15:47.416Z,13.38
2022-10-17T03:16:47.407Z,13.38
2022-10-17T03:17:47.405Z,13.37
2022-10-17T03:18:50.001Z,13.37
2022-10-17T03:19:47.389Z,13.39
2022-10-17T03:20:47.382Z,13.37
2022-10-17T03:21:47.377Z,13.38
2022-10-17T03:22:47.371Z,13.33
2022-10-17T03:23:47.364Z,13.39
2022-10-17T03:24:47.358Z,13.37
2022-10-17T03:25:47.349Z,13.42
2022-10-17T03:27:47.340Z,13.47
2022-10-17T03:28:50.640Z,13.41
2022-10-17T03:29:47.327Z,13.44
2022-10-17T03:30:47.320Z,13.47
2022-10-17T03:31:47.314Z,13.47
2022-10-17T03:32:47.308Z,13.42
2022-10-17T03:33:47.301Z,13.41
2022-10-17T03:34:47.296Z,13.33
2022-10-17T03:35:47.352Z,13.50
2022-10-17T03:36:47.286Z,13.39
2022-10-17T03:37:47.276Z,13.44
2022-10-17T03:38:47.309Z,13.44
2022-10-17T03:39:47.267Z,13.39
2022-10-17T03:40:47.258Z,13.38
2022-10-17T03:41:47.252Z,13.38
2022-10-17T03:42:47.245Z,13.44
2022-10-17T03:43:47.239Z,13.41
2022-10-17T03:44:47.232Z,13.38
2022-10-17T03:45:47.225Z,13.31
2022-10-17T03:46:47.221Z,13.41
2022-10-17T03:47:47.214Z,13.33
2022-10-17T03:48:47.210Z,13.31
2022-10-17T03:49:47.199Z,13.25
2022-10-17T03:50:47.198Z,13.25
2022-10-17T03:51:47.188Z,13.22
2022-10-17T03:52:47.185Z,13.25
2022-10-17T03:53:47.183Z,13.23
2022-10-17T03:54:47.170Z,13.27
2022-10-17T03:55:47.165Z,13.25
2022-10-17T03:56:47.205Z,13.27
2022-10-17T03:57:47.151Z,13.28
2022-10-17T03:58:47.145Z,13.31
2022-10-17T03:59:47.139Z,13.27
2022-10-17T04:00:47.132Z,13.30
2022-10-17T04:01:47.149Z,13.23
2022-10-17T04:02:47.119Z,13.33
2022-10-17T04:03:47.114Z,13.31
2022-10-17T04:04:47.107Z,13.28
2022-10-17T04:05:47.126Z,13.27
2022-10-17T04:06:47.095Z,13.38
2022-10-17T04:07:47.087Z,13.23
2022-10-17T04:08:47.081Z,13.25
2022-10-17T04:09:47.076Z,13.23
2022-10-17T04:10:47.070Z,13.35
2022-10-17T04:11:47.063Z,13.30
2022-10-17T04:12:47.057Z,13.27
2022-10-17T04:13:47.050Z,13.16
2022-10-17T04:14:47.045Z,13.20
2022-10-17T04:15:47.038Z,13.20
2022-10-17T04:16:47.030Z,13.20
2022-10-17T04:17:48.636Z,13.18
2022-10-17T04:18:47.019Z,13.20
2022-10-17T04:19:47.012Z,13.25
2022-10-17T04:20:47.006Z,13.19
2022-10-17T04:21:47.000Z,13.22
2022-10-17T04:22:46.993Z,13.35
2022-10-17T04:23:46.988Z,13.33
2022-10-17T04:24:46.980Z,13.30
2022-10-17T04:25:46.980Z,13.30
2022-10-17T04:26:46.972Z,13.41
2022-10-17T04:27:46.963Z,13.39
2022-10-17T04:28:46.958Z,13.38
2022-10-17T04:29:46.951Z,13.41
2022-10-17T04:30:49.010Z,13.35
2022-10-17T04:31:46.937Z,13.37
2022-10-17T04:32:46.932Z,13.37
2022-10-17T04:33:46.925Z,13.39
2022-10-17T04:34:46.919Z,13.46
2022-10-17T04:35:46.914Z,13.38
2022-10-17T04:36:46.909Z,13.39
2022-10-17T04:37:46.899Z,13.42
2022-10-17T04:38:46.894Z,13.44
2022-10-17T04:39:46.888Z,13.50
2022-10-17T04:40:46.894Z,13.59
2022-10-17T04:41:46.874Z,13.49
2022-10-17T04:42:46.874Z,13.50
2022-10-17T04:43:50.119Z,13.54
2022-10-17T04:44:46.858Z,13.50
2022-10-17T04:45:46.852Z,13.50
2022-10-17T04:46:46.844Z,13.62
2022-10-17T04:47:46.837Z,13.52
2022-10-17T04:48:46.831Z,13.49
2022-10-17T04:49:46.828Z,13.49
2022-10-17T04:50:46.819Z,13.50
2022-10-17T04:51:46.813Z,13.57
2022-10-17T04:52:46.806Z,13.50
2022-10-17T04:53:46.800Z,13.47
2022-10-17T04:54:46.794Z,13.49
2022-10-17T04:55:46.791Z,13.42
2022-10-17T04:56:46.780Z,13.47
2022-10-17T04:57:46.777Z,13.50
2022-10-17T04:58:46.768Z,13.42
2022-10-17T04:59:46.763Z,13.56
2022-10-17T05:00:46.778Z,13.50
2022-10-17T05:01:46.752Z,13.52
2022-10-17T05:02:53.900Z,13.56
2022-10-17T05:04:50.724Z,13.57
2022-10-17T05:05:50.709Z,13.50
2022-10-17T05:07:54.695Z,13.41
2022-10-17T05:08:54.676Z,13.41
2022-10-17T05:11:58.655Z,13.33
2022-10-17T05:13:51.575Z,13.30
2022-10-17T05:14:51.561Z,13.25
2022-10-17T05:16:55.566Z,13.28
2022-10-17T05:17:55.556Z,13.27
2022-10-17T05:19:48.661Z,13.35
2022-10-17T05:20:48.646Z,13.38
2022-10-17T05:22:52.648Z,13.28
2022-10-17T05:23:52.633Z,13.35
2022-10-17T05:25:56.614Z,13.16
2022-10-17T05:26:56.604Z,13.27
2022-10-17T05:28:49.811Z,13.25
2022-10-17T05:29:49.690Z,13.23
2022-10-17T05:31:53.754Z,13.30
2022-10-17T05:32:53.667Z,13.19
2022-10-17T05:34:57.651Z,13.19
2022-10-17T05:35:57.633Z,13.19
2022-10-17T05:37:50.737Z,13.28
2022-10-17T05:38:50.721Z,13.25
2022-10-17T05:40:54.695Z,13.33
2022-10-17T05:41:54.685Z,13.35
2022-10-17T05:43:47.607Z,13.35
2022-10-17T05:44:47.597Z,13.50
2022-10-17T05:46:51.566Z,13.53
2022-10-17T05:47:51.555Z,13.56
2022-10-17T05:49:55.545Z,13.53
2022-10-17T05:50:55.529Z,13.60
2022-10-17T05:52:48.633Z,13.65
2022-10-17T05:53:48.615Z,13.62
2022-10-17T05:55:52.603Z,13.67
2022-10-17T05:56:52.599Z,13.68
2022-10-17T05:59:00.060Z,13.70
2022-10-17T05:59:56.583Z,13.75
2022-10-17T06:02:00.684Z,13.78
2022-10-17T06:03:00.571Z,13.75
2022-10-17T06:05:04.557Z,13.86
2022-10-17T06:06:04.545Z,13.85
2022-10-17T06:08:08.539Z,13.93
2022-10-17T06:09:08.524Z,13.95
2022-10-17T06:11:12.505Z,14.04
2022-10-17T06:12:12.505Z,13.96
2022-10-17T06:14:05.404Z,14.04
2022-10-17T06:15:05.387Z,14.03
2022-10-17T06:16:58.619Z,14.11
2022-10-17T06:17:58.617Z,14.08
2022-10-17T06:20:02.602Z,14.26
2022-10-17T06:21:02.590Z,14.25
2022-10-17T06:23:06.625Z,14.28
2022-10-17T06:24:06.609Z,14.23
2022-10-17T06:26:10.590Z,14.32
2022-10-17T06:27:11.954Z,14.32
2022-10-17T06:29:14.555Z,14.40
2022-10-17T06:30:14.539Z,14.53
2022-10-17T06:32:18.550Z,14.48
2022-10-17T06:33:18.530Z,14.58
2022-10-17T06:35:22.528Z,14.53
2022-10-17T06:36:22.519Z,14.58
2022-10-17T06:38:26.511Z,14.62
2022-10-17T06:39:26.500Z,14.62
2022-10-17T06:41:30.473Z,14.77
2022-10-17T06:42:30.464Z,14.77
2022-10-17T06:44:34.462Z,14.79
2022-10-17T06:45:34.445Z,14.88
2022-10-17T06:47:38.430Z,14.89
2022-10-17T06:48:38.412Z,14.99
2022-10-17T06:50:42.399Z,15.04
2022-10-17T06:51:42.383Z,15.07
2022-10-17T06:53:35.291Z,15.21
2022-10-17T06:54:35.279Z,15.25
2022-10-17T06:56:28.625Z,15.33
2022-10-17T06:57:28.792Z,15.47
2022-10-17T06:59:21.718Z,15.36
2022-10-17T07:00:21.704Z,15.37
2022-10-17T07:02:25.695Z,15.55
2022-10-17T07:03:25.681Z,15.47
2022-10-17T07:05:29.675Z,15.54
2022-10-17T07:06:29.662Z,15.58
2022-10-17T07:08:22.767Z,15.70
2022-10-17T07:09:22.754Z,15.72
2022-10-17T07:11:26.739Z,15.76
2022-10-17T07:12:26.732Z,15.88
2022-10-17T07:14:30.738Z,16.08
2022-10-17T07:15:30.731Z,16.01
2022-10-17T07:17:34.710Z,16.04
2022-10-17T07:18:34.696Z,16.08
2022-10-17T07:20:38.702Z,16.24
2022-10-17T07:21:39.358Z,16.17
2022-10-17T07:23:31.639Z,16.28
2022-10-17T07:24:31.620Z,16.24
2022-10-17T07:26:35.615Z,16.36
2022-10-17T07:27:35.604Z,16.31
2022-10-17T07:29:39.605Z,16.36
2022-10-17T07:30:39.590Z,16.39
2022-10-17T07:32:43.606Z,16.38
2022-10-17T07:33:43.660Z,16.43
2022-10-17T07:35:47.566Z,16.51
2022-10-17T07:36:47.559Z,16.50
2022-10-17T07:38:51.595Z,16.56
2022-10-17T07:39:51.583Z,16.64
2022-10-17T07:40:51.577Z,16.69
2022-10-17T07:41:51.573Z,16.71
2022-10-17T07:42:51.569Z,16.71
2022-10-17T07:43:51.561Z,16.74
2022-10-17T07:44:51.555Z,16.75
2022-10-17T07:45:51.553Z,16.83
2022-10-17T07:46:51.548Z,16.81
2022-10-17T07:47:51.543Z,16.87
2022-10-17T07:48:51.540Z,16.90
2022-10-17T07:49:51.675Z,16.89
2022-10-17T07:50:51.531Z,16.93
2022-10-17T07:51:51.527Z,16.90
2022-10-17T07:52:51.522Z,16.91
2022-10-17T07:53:51.518Z,16.99
2022-10-17T07:54:51.516Z,16.99
2022-10-17T07:55:51.506Z,17.01
2022-10-17T07:56:51.503Z,17.05
2022-10-17T07:57:51.501Z,17.04
2022-10-17T07:58:51.529Z,17.01
2022-10-17T07:59:51.489Z,16.99
2022-10-17T08:00:51.602Z,17.11
2022-10-17T08:01:51.482Z,17.11
2022-10-17T08:02:51.476Z,17.15
2022-10-17T08:03:51.477Z,17.19
2022-10-17T08:04:51.469Z,17.20
2022-10-17T08:05:51.465Z,17.27
2022-10-17T08:06:56.450Z,17.27
2022-10-17T08:07:51.454Z,17.29
2022-10-17T08:08:51.454Z,17.26
2022-10-17T08:09:51.446Z,17.33
2022-10-17T08:10:51.442Z,17.39
2022-10-17T08:11:51.437Z,17.45
2022-10-17T08:12:51.432Z,17.42
2022-10-17T08:13:51.428Z,17.49
2022-10-17T08:14:51.424Z,17.45
2022-10-17T08:15:51.420Z,17.49
2022-10-17T08:16:51.416Z,17.46
2022-10-17T08:17:51.412Z,17.52
2022-10-17T08:18:51.407Z,17.54
2022-10-17T08:19:51.400Z,17.52
2022-10-17T08:20:51.397Z,17.65
2022-10-17T08:21:51.397Z,17.56
2022-10-17T08:22:51.397Z,17.64
2022-10-17T08:23:51.385Z,17.68
2022-10-17T08:24:51.383Z,17.70
2022-10-17T08:25:51.378Z,17.72
2022-10-17T08:26:51.899Z,17.78
2022-10-17T08:27:51.368Z,17.87
2022-10-17T08:28:51.445Z,17.87
2022-10-17T08:29:51.361Z,17.89
2022-10-17T08:30:51.356Z,17.89
2022-10-17T08:31:54.169Z,17.95
2022-10-17T08:32:51.348Z,17.97
2022-10-17T08:33:51.344Z,17.92
2022-10-17T08:34:51.340Z,17.87
2022-10-17T08:35:51.336Z,17.94
2022-10-17T08:36:51.332Z,17.97
2022-10-17T08:37:51.329Z,18.04
2022-10-17T08:38:53.025Z,17.95
2022-10-17T08:39:51.320Z,18.01
2022-10-17T08:40:51.316Z,18.00
2022-10-17T08:41:51.313Z,18.13
2022-10-17T08:42:51.309Z,18.07
2022-10-17T08:43:51.303Z,18.07
2022-10-17T08:44:51.299Z,18.11
2022-10-17T08:45:51.296Z,18.08
2022-10-17T08:46:51.293Z,18.15
2022-10-17T08:47:51.289Z,18.13
2022-10-17T08:48:51.288Z,18.31
2022-10-17T08:49:51.282Z,18.37
2022-10-17T08:50:51.277Z,18.40
2022-10-17T08:51:51.273Z,18.34
2022-10-17T08:52:51.291Z,18.43
2022-10-17T08:53:51.268Z,18.44
2022-10-17T08:54:51.261Z,18.53
2022-10-17T08:55:51.394Z,18.52
2022-10-17T08:56:51.253Z,18.49
2022-10-17T08:57:51.251Z,18.66
2022-10-17T08:58:51.247Z,18.74
2022-10-17T08:59:51.243Z,18.59
2022-10-17T09:00:51.239Z,18.71
2022-10-17T09:01:51.236Z,18.75
2022-10-17T09:02:51.288Z,18.84
2022-10-17T09:03:51.228Z,18.89
2022-10-17T09:04:51.225Z,18.86
2022-10-17T09:05:51.221Z,18.86
2022-10-17T09:06:51.218Z,18.92
2022-10-17T09:07:51.216Z,18.88
2022-10-17T09:08:51.212Z,18.95
2022-10-17T09:09:51.207Z,18.83
2022-10-17T09:10:51.204Z,18.98
2022-10-17T09:11:51.200Z,18.98
2022-10-17T09:12:51.198Z,18.86
2022-10-17T09:13:51.195Z,18.95
2022-10-17T09:14:51.190Z,18.98
2022-10-17T09:15:51.192Z,18.96
2022-10-17T09:16:51.183Z,19.09
2022-10-17T09:17:51.181Z,19.11
2022-10-17T09:18:51.178Z,19.18
2022-10-17T09:19:51.179Z,19.26
2022-10-17T09:20:51.169Z,19.36
2022-10-17T09:21:51.168Z,19.47
2022-10-17T09:22:51.193Z,19.44
2022-10-17T09:23:53.235Z,19.51
2022-10-17T09:24:51.159Z,19.54
2022-10-17T09:25:51.154Z,19.54
2022-10-17T09:26:51.152Z,19.66
2022-10-17T09:27:51.148Z,19.73
2022-10-17T09:28:51.214Z,19.70
2022-10-17T09:29:51.142Z,19.66
2022-10-17T09:30:51.143Z,19.73
2022-10-17T09:31:51.165Z,19.71
2022-10-17T09:32:51.132Z,19.73
2022-10-17T09:33:55.139Z,19.77
2022-10-17T09:34:51.125Z,19.86
2022-10-17T09:35:51.124Z,19.94
2022-10-17T09:36:51.120Z,19.84
2022-10-17T09:37:51.118Z,20.00
2022-10-17T09:38:51.109Z,19.94
2022-10-17T09:39:51.111Z,20.00
2022-10-17T09:40:56.151Z,19.99
2022-10-17T09:41:51.105Z,20.04
2022-10-17T09:42:51.104Z,20.06
2022-10-17T09:43:51.099Z,20.13
2022-10-17T09:44:51.096Z,20.19
2022-10-17T09:45:51.098Z,20.22
2022-10-17T09:46:51.097Z,20.22
2022-10-17T09:47:51.108Z,20.31
2022-10-17T09:48:53.310Z,20.36
2022-10-17T09:49:51.084Z,20.36
2022-10-17T09:50:57.943Z,20.40
2022-10-17T09:51:51.078Z,20.37
2022-10-17T09:52:51.076Z,20.43
2022-10-17T09:53:51.071Z,20.40
2022-10-17T09:54:51.071Z,20.50
2022-10-17T09:55:51.069Z,20.51
2022-10-17T09:56:51.066Z,20.56
2022-10-17T09:57:51.062Z,20.69
2022-10-17T09:58:51.066Z,20.67
2022-10-17T09:59:51.058Z,20.67
2022-10-17T10:00:51.093Z,20.77
2022-10-17T10:01:51.055Z,20.78
2022-10-17T10:02:51.051Z,20.77
2022-10-17T10:03:51.050Z,20.82
2022-10-17T10:05:03.659Z,20.85
2022-10-17T10:05:51.043Z,20.80
2022-10-17T10:06:51.040Z,20.77
2022-10-17T10:07:51.038Z,20.96
2022-10-17T10:08:51.037Z,20.96
2022-10-17T10:09:51.074Z,21.09
2022-10-17T10:10:51.031Z,21.05
2022-10-17T10:11:51.031Z,21.15
2022-10-17T10:12:51.025Z,21.07
2022-10-17T10:13:51.026Z,21.17
2022-10-17T10:14:54.618Z,21.18
2022-10-17T10:15:51.031Z,21.32
2022-10-17T10:16:51.033Z,21.32
2022-10-17T10:17:51.017Z,21.40
2022-10-17T10:18:51.241Z,21.32
2022-10-17T10:19:51.011Z,21.43
2022-10-17T10:20:51.014Z,21.36
2022-10-17T10:21:51.008Z,21.57
2022-10-17T10:22:51.005Z,21.52
2022-10-17T10:23:51.004Z,21.57
2022-10-17T10:24:51.007Z,21.45
2022-10-17T10:25:51.000Z,21.54
2022-10-17T10:26:50.997Z,21.61
2022-10-17T10:27:50.996Z,21.60
2022-10-17T10:28:51.073Z,21.55
2022-10-17T10:29:50.998Z,21.69
2022-10-17T10:30:50.992Z,21.69
2022-10-17T10:31:50.988Z,21.62
2022-10-17T10:32:50.986Z,21.79
2022-10-17T10:33:52.871Z,21.70
2022-10-17T10:34:50.983Z,21.72
2022-10-17T10:35:50.981Z,21.82
2022-10-17T10:36:50.980Z,21.80
2022-10-17T10:37:50.978Z,21.83
2022-10-17T10:38:50.978Z,21.85
2022-10-17T10:39:50.973Z,21.91
2022-10-17T10:40:50.974Z,21.96
2022-10-17T10:41:50.972Z,22.04
2022-10-17T10:42:50.971Z,22.14
2022-10-17T10:43:50.969Z,22.13
2022-10-17T10:44:50.968Z,22.08
2022-10-17T10:45:50.967Z,22.13
2022-10-17T10:46:50.966Z,22.10
2022-10-17T10:47:50.962Z,22.20
2022-10-17T10:48:50.962Z,22.17
2022-10-17T10:49:50.960Z,22.23
2022-10-17T10:50:50.959Z,22.17
2022-10-17T10:51:50.956Z,22.14
2022-10-17T10:52:50.962Z,22.11
2022-10-17T10:53:50.953Z,22.04
2022-10-17T10:54:50.953Z,22.17
2022-10-17T10:55:50.952Z,22.11
2022-10-17T10:56:53.321Z,22.14
2022-10-17T10:57:50.947Z,22.18
2022-10-17T10:58:50.947Z,22.17
2022-10-17T10:59:50.946Z,22.20
2022-10-17T11:00:51.020Z,22.17
2022-10-17T11:01:50.942Z,22.20
2022-10-17T11:02:58.099Z,22.29
2022-10-17T11:04:43.879Z,22.43
2022-10-17T11:05:43.866Z,22.41
2022-10-17T11:07:58.935Z,22.48
2022-10-17T11:08:58.924Z,22.55
2022-10-17T11:11:03.507Z,22.51
2022-10-17T11:12:03.097Z,22.66
2022-10-17T11:13:56.009Z,22.69
2022-10-17T11:14:56.006Z,22.60
2022-10-17T11:16:48.946Z,22.68
2022-10-17T11:17:49.010Z,22.76
2022-10-17T11:19:53.429Z,22.73
2022-10-17T11:20:53.433Z,22.83
2022-10-17T11:21:53.425Z,22.94
2022-10-17T11:22:53.421Z,22.99
2022-10-17T11:23:53.424Z,22.88
2022-10-17T11:24:53.422Z,23.00
2022-10-17T11:25:53.414Z,22.94
2022-10-17T11:26:53.419Z,23.02
2022-10-17T11:27:53.417Z,23.00
2022-10-17T11:28:53.502Z,23.12
2022-10-17T11:29:53.417Z,23.10
2022-10-17T11:30:53.418Z,23.21
2022-10-17T11:31:53.413Z,23.15
2022-10-17T11:32:53.414Z,23.28
2022-10-17T11:33:53.404Z,23.27
2022-10-17T11:34:53.407Z,23.41
2022-10-17T11:35:53.408Z,23.46
2022-10-17T11:36:53.406Z,23.37
2022-10-17T11:37:53.407Z,23.36
2022-10-17T11:38:53.406Z,23.32
2022-10-17T11:39:53.405Z,23.31
2022-10-17T11:40:53.405Z,23.44
2022-10-17T11:41:55.415Z,23.37
2022-10-17T11:42:53.407Z,23.40
2022-10-17T11:43:53.409Z,23.41
2022-10-17T11:44:53.401Z,23.47
2022-10-17T11:45:53.401Z,23.47
2022-10-17T11:46:53.395Z,23.43
2022-10-17T11:47:53.395Z,23.51
2022-10-17T11:48:53.397Z,23.56
2022-10-17T11:49:53.554Z,23.65
2022-10-17T11:52:01.932Z,23.51
2022-10-17T11:52:57.108Z,23.56
2022-10-17T11:53:53.396Z,23.59
2022-10-17T11:54:53.407Z,23.62
2022-10-17T11:55:53.392Z,23.58
2022-10-17T11:56:53.393Z,23.58
2022-10-17T11:57:53.386Z,23.66
2022-10-17T11:58:53.392Z,23.62
2022-10-17T11:59:53.392Z,23.71
2022-10-17T12:00:53.387Z,23.73
2022-10-17T12:01:53.389Z,23.71
2022-10-17T12:02:53.389Z,23.80
2022-10-17T12:03:53.388Z,23.86
2022-10-17T12:04:53.420Z,23.91
2022-10-17T12:05:53.392Z,23.99
2022-10-17T12:06:53.385Z,24.02
2022-10-17T12:07:53.394Z,24.06
2022-10-17T12:08:53.388Z,24.26
2022-10-17T12:09:53.384Z,24.29
2022-10-17T12:10:53.386Z,24.30
2022-10-17T12:11:53.383Z,24.33
2022-10-17T12:12:53.386Z,24.35
2022-10-17T12:13:53.379Z,24.43
2022-10-17T12:14:53.398Z,24.36
2022-10-17T12:15:53.383Z,24.39
2022-10-17T12:16:53.391Z,24.42
2022-10-17T12:17:53.381Z,24.43
2022-10-17T12:18:53.391Z,24.39
2022-10-17T12:19:53.388Z,24.43
2022-10-17T12:20:53.385Z,24.50
2022-10-17T12:21:53.389Z,24.40
2022-10-17T12:22:53.383Z,24.36
2022-10-17T12:23:53.382Z,24.38
2022-10-17T12:24:53.383Z,24.42
2022-10-17T12:25:54.229Z,24.35
2022-10-17T12:26:56.442Z,24.30
2022-10-17T12:27:53.385Z,24.33
2022-10-17T12:28:53.477Z,24.36
2022-10-17T12:29:53.380Z,24.39
2022-10-17T12:30:53.383Z,24.14
2022-10-17T12:31:53.379Z,24.33
2022-10-17T12:33:05.271Z,24.32
2022-10-17T12:33:53.379Z,24.30
2022-10-17T12:34:53.383Z,24.40
2022-10-17T12:35:53.378Z,24.42
2022-10-17T12:36:53.378Z,24.39
2022-10-17T12:37:57.323Z,24.39
2022-10-17T12:38:53.382Z,24.32
2022-10-17T12:39:53.440Z,24.40
2022-10-17T12:40:53.383Z,24.38
2022-10-17T12:41:53.378Z,24.48
2022-10-17T12:42:53.382Z,24.40
2022-10-17T12:43:53.389Z,24.50
2022-10-17T12:44:53.382Z,24.61
2022-10-17T12:45:53.379Z,24.53
2022-10-17T12:46:53.380Z,24.48
2022-10-17T12:47:53.387Z,24.51
2022-10-17T12:48:53.379Z,24.36
2022-10-17T12:49:56.602Z,24.33
2022-10-17T12:50:53.383Z,24.39
2022-10-17T12:51:53.380Z,24.43
2022-10-17T12:52:53.382Z,24.38
2022-10-17T12:53:53.380Z,24.36
2022-10-17T12:55:07.231Z,24.33
2022-10-17T12:55:53.386Z,24.43
2022-10-17T12:56:53.383Z,24.54
2022-10-17T12:57:53.381Z,24.48
2022-10-17T12:58:53.379Z,24.48
2022-10-17T12:59:56.688Z,24.43
2022-10-17T13:01:53.439Z,24.40
2022-10-17T13:02:53.382Z,24.43
2022-10-17T13:03:53.379Z,24.45
2022-10-17T13:04:53.650Z,24.42
2022-10-17T13:05:53.379Z,24.38
2022-10-17T13:06:53.381Z,24.40
2022-10-17T13:07:53.382Z,24.50
2022-10-17T13:08:56.084Z,24.36
2022-10-17T13:09:53.380Z,24.38
2022-10-17T13:10:53.385Z,24.33
2022-10-17T13:11:53.378Z,24.36
2022-10-17T13:12:53.379Z,24.38
2022-10-17T13:13:53.384Z,24.38
2022-10-17T13:14:53.382Z,24.50
2022-10-17T13:15:53.382Z,24.36
2022-10-17T13:16:53.379Z,24.42
2022-10-17T13:17:53.384Z,24.36
2022-10-17T13:18:53.381Z,24.45
2022-10-17T13:19:53.383Z,24.35
2022-10-17T13:20:53.382Z,24.42
2022-10-17T13:21:53.382Z,24.47
2022-10-17T13:22:53.381Z,24.32
2022-10-17T13:23:53.384Z,24.43
2022-10-17T13:24:53.380Z,24.38
2022-10-17T13:25:53.389Z,24.43
2022-10-17T13:26:53.452Z,24.40
2022-10-17T13:27:53.387Z,24.42
2022-10-17T13:28:53.441Z,24.54
2022-10-17T13:29:53.381Z,24.39
2022-10-17T13:30:54.702Z,24.54
2022-10-17T13:31:53.391Z,24.47
2022-10-17T13:32:53.385Z,24.58
2022-10-17T13:33:53.389Z,24.61
2022-10-17T13:34:53.386Z,24.63
2022-10-17T13:36:00.387Z,24.73
2022-10-17T13:36:53.387Z,24.69
2022-10-17T13:37:54.134Z,24.78
2022-10-17T13:38:53.394Z,24.70
2022-10-17T13:39:55.661Z,24.70
2022-10-17T13:41:01.394Z,24.68
2022-10-17T13:41:53.383Z,24.63
2022-10-17T13:42:53.385Z,24.70
2022-10-17T13:43:53.384Z,24.69
2022-10-17T13:44:53.387Z,24.66
2022-10-17T13:45:53.387Z,24.73
2022-10-17T13:46:53.394Z,24.74
2022-10-17T13:47:53.388Z,24.68
2022-10-17T13:48:53.394Z,24.65
2022-10-17T13:49:55.401Z,24.65
2022-10-17T13:50:53.385Z,24.68
2022-10-17T13:51:53.389Z,24.60
2022-10-17T13:52:53.386Z,24.66
2022-10-17T13:53:53.387Z,24.61
2022-10-17T13:54:53.382Z,24.66
2022-10-17T13:56:09.367Z,24.63
2022-10-17T13:56:53.384Z,24.61
2022-10-17T13:57:53.387Z,24.54
2022-10-17T13:58:53.386Z,24.61
2022-10-17T13:59:53.388Z,24.53
2022-10-17T14:00:53.434Z,24.54
2022-10-17T14:01:53.387Z,24.54